Terminal Aerodrome Forecast
Issued by NWS Albany, NY

Home | Current Version | Previous Version | Text Only | Print | Product List | Glossary On
Versions: 1 2 3 4 5 6 7 8 9 10 11 12 13 14 15 16 17 18 19 20 21 22
297
FTUS41 KALY 302330
TAFPOU
TAF
KPOU 302330Z 3100/3124 17006KT P6SM VCSH SCT035 SCT100
     FM310400 00000KT 4SM BR BKN100
     FM310800 00000KT 1 1/2SM BR SCT005 SCT250
     FM311200 29005KT P6SM SKC=

USA.gov is the U.S. government's official web portal to all federal, state and local government web resources and services.